createdAt,value
2022-10-19T00:00:33.810Z,15.93
2022-10-19T00:03:05.489Z,15.45
2022-10-19T00:05:40.178Z,16.17
2022-10-19T00:08:11.864Z,16.33
2022-10-19T00:10:43.789Z,15.52
2022-10-19T00:13:18.163Z,16.02
2022-10-19T00:15:51.200Z,14.55
2022-10-19T00:18:22.860Z,17.23
2022-10-19T00:21:03.643Z,16.42
2022-10-19T00:23:35.822Z,15.70
2022-10-19T00:26:07.758Z,14.82
2022-10-19T00:28:39.797Z,15.23
2022-10-19T00:31:17.743Z,15.63
2022-10-19T00:33:49.570Z,15.18
2022-10-19T00:36:24.205Z,15.43
2022-10-19T00:41:30.915Z,14.02
2022-10-19T00:44:13.602Z,14.15
2022-10-19T00:46:50.636Z,14.60
2022-10-19T00:49:26.518Z,13.43
2022-10-19T00:52:19.555Z,13.75
2022-10-19T00:54:53.816Z,14.90
2022-10-19T00:57:28.850Z,13.80
2022-10-19T01:00:03.007Z,15.20
2022-10-19T01:02:35.767Z,14.43
2022-10-19T01:05:08.506Z,14.55
2022-10-19T01:07:40.284Z,15.73
2022-10-19T01:10:13.355Z,14.50
2022-10-19T01:12:54.206Z,14.43
2022-10-19T01:15:41.679Z,13.57
2022-10-19T01:18:22.975Z,12.68
2022-10-19T01:21:03.838Z,14.10
2022-10-19T01:23:57.006Z,12.90
2022-10-19T01:26:55.398Z,13.05
2022-10-19T01:29:57.824Z,13.30
2022-10-19T01:32:48.075Z,13.07
2022-10-19T01:35:40.966Z,13.75
2022-10-19T01:38:25.134Z,13.80
2022-10-19T01:41:24.321Z,13.05
2022-10-19T01:44:01.849Z,12.85
2022-10-19T01:46:41.794Z,12.55
2022-10-19T01:49:33.460Z,13.55
2022-10-19T01:52:08.918Z,14.57
2022-10-19T01:54:44.928Z,15.55
2022-10-19T01:57:21.783Z,15.52
2022-10-19T01:59:56.745Z,15.73
2022-10-19T02:02:30.848Z,14.65
2022-10-19T02:05:05.697Z,13.68
2022-10-19T02:07:40.453Z,13.43
2022-10-19T02:10:12.300Z,14.80
2022-10-19T02:12:44.670Z,15.70
2022-10-19T02:15:21.370Z,15.98
2022-10-19T02:17:57.507Z,15.93
2022-10-19T02:20:29.464Z,16.13
2022-10-19T02:23:07.614Z,15.82
2022-10-19T02:25:39.491Z,16.50
2022-10-19T02:28:11.683Z,17.00
2022-10-19T02:30:43.478Z,17.10
2022-10-19T02:33:15.886Z,17.20
2022-10-19T02:35:48.244Z,16.77
2022-10-19T02:38:24.961Z,16.23
2022-10-19T02:41:15.644Z,18.73
2022-10-19T02:43:59.445Z,18.48
2022-10-19T02:49:18.133Z,17.65
2022-10-19T02:52:07.682Z,16.95
2022-10-19T02:54:41.187Z,16.95
2022-10-19T02:57:25.005Z,16.17
2022-10-19T02:59:56.624Z,16.92
2022-10-19T03:02:28.297Z,17.20
2022-10-19T03:04:59.924Z,16.70
2022-10-19T03:07:34.600Z,17.20
2022-10-19T03:10:06.953Z,16.42
2022-10-19T03:12:38.627Z,16.85
2022-10-19T03:15:15.359Z,15.30
2022-10-19T03:17:46.996Z,15.50
2022-10-19T03:20:18.662Z,15.00
2022-10-19T03:22:50.650Z,15.35
2022-10-19T03:25:25.004Z,14.43
2022-10-19T03:27:58.178Z,14.48
2022-10-19T03:30:29.909Z,14.40
2022-10-19T03:33:01.542Z,15.02
2022-10-19T03:35:35.216Z,14.23
2022-10-19T03:38:06.836Z,13.50
2022-10-19T03:40:40.482Z,14.40
2022-10-19T03:43:12.207Z,13.88
2022-10-19T03:45:46.736Z,13.20
2022-10-19T03:48:18.356Z,13.07
2022-10-19T03:51:01.503Z,12.88
2022-10-19T03:53:34.237Z,13.52
2022-10-19T03:56:19.545Z,11.60
2022-10-19T03:58:53.030Z,11.70
2022-10-19T04:01:33.568Z,11.73
2022-10-19T04:04:09.670Z,11.80
2022-10-19T04:06:44.107Z,13.18
2022-10-19T04:09:19.362Z,12.70
2022-10-19T04:11:51.171Z,11.98
2022-10-19T04:14:32.164Z,12.23
2022-10-19T04:17:04.926Z,13.15
2022-10-19T04:19:36.632Z,11.82
2022-10-19T04:22:08.279Z,11.77
2022-10-19T04:24:39.919Z,11.30
2022-10-19T04:27:11.752Z,12.48
2022-10-19T04:29:43.520Z,11.50
2022-10-19T04:32:18.489Z,12.02
2022-10-19T04:37:21.819Z,10.80
2022-10-19T04:39:53.465Z,11.13
2022-10-19T04:42:25.106Z,11.80
2022-10-19T04:44:56.736Z,11.52
2022-10-19T04:47:29.998Z,12.27
2022-10-19T04:50:01.744Z,11.63
2022-10-19T04:52:35.294Z,11.75
2022-10-19T04:55:07.336Z,11.02
2022-10-19T04:57:39.016Z,11.50
2022-10-19T05:00:11.226Z,11.25
2022-10-19T05:02:44.968Z,12.02
2022-10-19T05:05:16.633Z,11.63
2022-10-19T05:07:49.310Z,11.45
2022-10-19T05:10:20.964Z,11.30
2022-10-19T05:12:53.128Z,11.15
2022-10-19T05:15:24.802Z,11.13
2022-10-19T05:17:57.384Z,11.95
2022-10-19T05:20:29.076Z,12.05
2022-10-19T05:23:04.757Z,11.45
2022-10-19T05:25:39.071Z,11.00
2022-10-19T05:28:10.830Z,11.45
2022-10-19T05:30:46.660Z,11.27
2022-10-19T05:33:20.577Z,12.20
2022-10-19T05:35:52.204Z,11.73
2022-10-19T05:38:25.091Z,12.05
2022-10-19T05:40:56.734Z,11.65
2022-10-19T05:43:28.380Z,12.38
2022-10-19T05:46:08.149Z,12.50
2022-10-19T05:48:40.805Z,11.50
2022-10-19T05:51:15.339Z,12.75
2022-10-19T05:53:47.200Z,12.35
2022-10-19T05:56:22.205Z,12.18
2022-10-19T05:58:56.101Z,13.32
2022-10-19T06:01:29.499Z,12.75
2022-10-19T06:04:03.380Z,12.85
2022-10-19T06:06:35.154Z,13.40
2022-10-19T06:09:06.999Z,13.38
2022-10-19T06:11:41.445Z,13.45
2022-10-19T06:14:16.548Z,12.95
2022-10-19T06:16:48.701Z,13.80
2022-10-19T06:19:20.433Z,14.07
2022-10-19T06:21:52.167Z,14.00
2022-10-19T06:24:24.159Z,13.73
2022-10-19T06:26:55.798Z,14.18
2022-10-19T06:29:27.552Z,14.00
2022-10-19T06:32:00.422Z,14.02
2022-10-19T06:34:32.165Z,13.93
2022-10-19T06:37:03.897Z,14.38
2022-10-19T06:39:36.413Z,14.52
2022-10-19T06:42:09.607Z,13.65
2022-10-19T06:44:41.340Z,13.50
2022-10-19T06:47:13.126Z,14.82
2022-10-19T06:49:44.909Z,14.70
2022-10-19T06:52:16.538Z,14.23
2022-10-19T06:54:48.330Z,13.90
2022-10-19T06:57:20.027Z,13.45
2022-10-19T06:59:53.018Z,13.70
2022-10-19T07:02:25.786Z,13.00
2022-10-19T07:04:57.476Z,13.15
2022-10-19T07:07:29.162Z,12.55
2022-10-19T07:10:02.695Z,12.43
2022-10-19T07:12:34.548Z,10.70
2022-10-19T07:15:06.889Z,10.07
2022-10-19T07:17:38.624Z,8.73
2022-10-19T07:20:10.961Z,8.65
2022-10-19T07:22:42.673Z,8.32
2022-10-19T07:25:14.795Z,8.07
2022-10-19T07:27:46.546Z,8.13
2022-10-19T07:30:23.672Z,7.25
2022-10-19T07:32:55.422Z,7.20
2022-10-19T07:35:27.565Z,8.43
2022-10-19T07:37:59.411Z,7.30
2022-10-19T07:40:31.255Z,6.78
2022-10-19T07:43:03.382Z,6.60
2022-10-19T07:45:35.358Z,5.60
2022-10-19T07:48:07.264Z,6.38
2022-10-19T07:50:39.377Z,6.35
2022-10-19T07:53:11.222Z,6.30
2022-10-19T07:55:43.202Z,6.50
2022-10-19T07:58:14.925Z,6.20
2022-10-19T08:00:47.326Z,12.80
2022-10-19T08:03:57.509Z,5.75
2022-10-19T08:06:13.832Z,5.82
2022-10-19T08:08:46.793Z,5.78
2022-10-19T08:11:27.491Z,5.75
2022-10-19T08:13:59.382Z,5.35
2022-10-19T08:16:33.249Z,5.80
2022-10-19T08:19:08.180Z,4.63
2022-10-19T08:21:42.553Z,5.30
2022-10-19T08:24:16.403Z,5.35
2022-10-19T08:26:51.235Z,5.10
2022-10-19T08:29:23.820Z,4.35
2022-10-19T08:31:57.642Z,4.55
2022-10-19T08:34:29.331Z,4.38
2022-10-19T08:37:10.089Z,3.90
2022-10-19T08:39:52.160Z,3.90
2022-10-19T08:42:33.826Z,3.60
2022-10-19T08:45:27.209Z,3.65
2022-10-19T08:48:30.353Z,3.20
2022-10-19T08:51:03.225Z,3.70
2022-10-19T08:53:38.140Z,3.45
2022-10-19T08:56:51.461Z,2.85
2022-10-19T08:59:50.255Z,3.38
2022-10-19T09:02:32.200Z,2.55
2022-10-19T09:05:13.456Z,3.35
2022-10-19T09:07:47.421Z,2.85
2022-10-19T09:10:38.883Z,2.83
2022-10-19T09:13:36.497Z,2.42
2022-10-19T09:16:20.188Z,2.28
2022-10-19T09:21:47.910Z,2.47
2022-10-19T09:24:29.975Z,2.30
2022-10-19T09:27:03.130Z,2.22
2022-10-19T09:29:43.692Z,2.40
2022-10-19T09:32:20.979Z,2.05
2022-10-19T09:35:07.375Z,2.42
2022-10-19T09:37:44.870Z,3.17
2022-10-19T09:40:20.205Z,2.33
2022-10-19T09:42:57.308Z,2.50
2022-10-19T09:45:54.301Z,2.40
2022-10-19T09:48:33.409Z,2.35
2022-10-19T09:51:17.847Z,2.47
2022-10-19T09:53:54.817Z,2.83
2022-10-19T09:56:28.034Z,2.47
2022-10-19T09:59:00.151Z,2.40
2022-10-19T10:01:41.733Z,2.50
2022-10-19T10:04:17.925Z,2.60
2022-10-19T10:06:50.495Z,2.58
2022-10-19T10:09:27.342Z,2.28
2022-10-19T10:12:02.515Z,2.45
2022-10-19T10:14:36.740Z,2.47
2022-10-19T10:17:34.827Z,3.00
2022-10-19T10:20:17.679Z,3.63
2022-10-19T10:23:01.671Z,2.15
2022-10-19T10:25:36.298Z,2.42
2022-10-19T10:28:32.486Z,1.95
2022-10-19T10:31:08.871Z,2.05
2022-10-19T10:33:45.687Z,1.63
2022-10-19T10:36:18.337Z,1.77
2022-10-19T10:38:55.653Z,2.38
2022-10-19T10:41:31.628Z,1.80
2022-10-19T10:44:08.591Z,1.85
2022-10-19T10:46:51.697Z,1.67
2022-10-19T10:49:37.398Z,1.83
2022-10-19T10:52:15.641Z,2.00
2022-10-19T10:55:09.054Z,1.98
2022-10-19T10:57:50.861Z,1.77
2022-10-19T11:00:24.187Z,1.83
2022-10-19T11:03:17.664Z,1.85
2022-10-19T11:05:57.141Z,1.58
2022-10-19T11:09:03.728Z,1.77
2022-10-19T11:11:43.426Z,1.88
2022-10-19T11:14:37.946Z,2.10
2022-10-19T11:17:20.019Z,2.00
2022-10-19T11:19:52.042Z,1.67
2022-10-19T11:22:41.782Z,1.85
2022-10-19T11:25:30.249Z,1.77
2022-10-19T11:28:26.935Z,1.80
2022-10-19T11:31:34.147Z,1.98
2022-10-19T11:34:30.636Z,1.55
2022-10-19T11:37:14.612Z,1.60
2022-10-19T11:40:22.109Z,1.90
2022-10-19T11:43:07.023Z,2.25
2022-10-19T11:46:05.024Z,1.83
2022-10-19T11:48:55.070Z,1.67
2022-10-19T11:51:47.052Z,1.60
2022-10-19T11:54:44.204Z,1.95
2022-10-19T11:57:26.208Z,1.63
2022-10-19T12:00:15.166Z,1.73
2022-10-19T12:03:27.969Z,1.98
2022-10-19T12:06:23.012Z,1.80
2022-10-19T12:09:20.990Z,1.50
2022-10-19T12:12:20.835Z,1.67
2022-10-19T12:15:03.292Z,1.60
2022-10-19T12:17:38.248Z,1.73
2022-10-19T12:20:24.643Z,1.33
2022-10-19T12:22:59.368Z,1.75
2022-10-19T12:25:31.095Z,1.60
2022-10-19T12:28:10.361Z,1.50
2022-10-19T12:30:42.115Z,1.48
2022-10-19T12:33:26.515Z,1.58
2022-10-19T12:36:25.472Z,1.85
2022-10-19T12:39:02.602Z,2.28
2022-10-19T12:41:44.863Z,1.40
2022-10-19T12:44:32.525Z,1.95
2022-10-19T12:47:11.841Z,1.60
2022-10-19T12:49:44.811Z,1.42
2022-10-19T12:52:40.613Z,1.38
2022-10-19T12:55:28.047Z,1.35
2022-10-19T12:58:03.095Z,1.30
2022-10-19T13:00:37.656Z,1.40
2022-10-19T13:06:06.130Z,1.35
2022-10-19T13:08:53.004Z,1.50
2022-10-19T13:11:25.359Z,1.30
2022-10-19T13:14:06.396Z,2.63
2022-10-19T13:16:38.072Z,1.70
2022-10-19T13:19:12.469Z,1.40
2022-10-19T13:21:48.920Z,1.30
2022-10-19T13:24:23.547Z,1.40
2022-10-19T13:27:04.195Z,1.73
2022-10-19T13:29:38.766Z,1.70
2022-10-19T13:32:38.120Z,1.70
2022-10-19T13:35:28.764Z,1.70
2022-10-19T13:38:16.470Z,2.03
2022-10-19T13:40:51.254Z,1.50
2022-10-19T13:46:10.628Z,1.58
2022-10-19T13:49:08.511Z,1.17
2022-10-19T13:52:07.909Z,1.20
2022-10-19T13:55:17.148Z,1.70
2022-10-19T13:58:14.294Z,1.25
2022-10-19T14:00:48.903Z,1.52
2022-10-19T14:06:31.711Z,1.30
2022-10-19T14:09:18.808Z,1.70
2022-10-19T14:11:54.094Z,1.70
2022-10-19T14:14:28.274Z,1.95
2022-10-19T14:17:04.415Z,1.55
2022-10-19T14:19:49.027Z,1.50
2022-10-19T14:22:27.157Z,1.40
2022-10-19T14:25:20.778Z,1.50
2022-10-19T14:28:06.048Z,1.30
2022-10-19T14:30:37.989Z,1.30
2022-10-19T14:33:14.905Z,1.30
2022-10-19T14:35:50.177Z,1.40
2022-10-19T14:38:43.433Z,1.40
2022-10-19T14:41:27.165Z,1.17
2022-10-19T14:44:00.584Z,1.38
2022-10-19T14:46:34.187Z,1.40
2022-10-19T14:49:11.473Z,1.50
2022-10-19T14:51:49.511Z,1.40
2022-10-19T14:54:36.138Z,1.50
2022-10-19T14:57:39.671Z,1.17
2022-10-19T15:00:18.722Z,1.40
2022-10-19T15:03:07.098Z,1.10
2022-10-19T15:05:46.369Z,1.90
2022-10-19T15:08:34.011Z,1.50
2022-10-19T15:11:07.777Z,1.65
2022-10-19T15:13:43.061Z,1.57
2022-10-19T15:16:43.270Z,1.45
2022-10-19T15:19:25.058Z,1.30
2022-10-19T15:22:26.868Z,1.30
2022-10-19T15:25:23.563Z,1.45
2022-10-19T15:27:57.740Z,1.30
2022-10-19T15:30:32.548Z,1.60
2022-10-19T15:33:04.476Z,1.40
2022-10-19T15:35:39.719Z,1.40
2022-10-19T15:38:14.896Z,1.58
2022-10-19T15:40:48.287Z,1.60
2022-10-19T15:43:35.086Z,1.35
2022-10-19T15:46:20.506Z,1.73
2022-10-19T15:48:57.599Z,2.95
2022-10-19T15:51:32.087Z,1.90
2022-10-19T15:54:06.408Z,1.85
2022-10-19T15:56:39.952Z,1.60
2022-10-19T15:59:18.122Z,1.60
2022-10-19T16:01:52.608Z,1.65
2022-10-19T16:04:26.935Z,1.83
2022-10-19T16:06:58.807Z,1.70
2022-10-19T16:09:30.688Z,1.40
2022-10-19T16:12:02.476Z,1.52
2022-10-19T16:14:36.610Z,2.05
2022-10-19T16:17:13.359Z,1.67
2022-10-19T16:19:46.135Z,1.80
2022-10-19T16:22:18.043Z,2.70
2022-10-19T16:24:49.795Z,2.00
2022-10-19T16:27:21.585Z,1.80
2022-10-19T16:29:54.743Z,2.22
2022-10-19T16:32:26.426Z,2.38
2022-10-19T16:34:59.780Z,1.55
2022-10-19T16:37:31.749Z,1.63
2022-10-19T16:40:05.351Z,1.90
2022-10-19T16:42:37.636Z,1.70
2022-10-19T16:45:10.171Z,2.78
2022-10-19T16:47:41.858Z,1.67
2022-10-19T16:50:13.915Z,1.73
2022-10-19T16:52:45.937Z,1.80
2022-10-19T16:55:18.220Z,1.88
2022-10-19T16:57:53.467Z,1.98
2022-10-19T17:00:27.962Z,1.80
2022-10-19T17:02:59.642Z,1.98
2022-10-19T17:05:31.367Z,1.90
2022-10-19T17:08:05.194Z,2.30
2022-10-19T17:10:36.965Z,1.95
2022-10-19T17:13:08.734Z,1.63
2022-10-19T17:15:43.267Z,3.13
2022-10-19T17:18:15.510Z,1.48
2022-10-19T17:20:47.270Z,1.75
2022-10-19T17:23:19.109Z,1.40
2022-10-19T17:25:51.080Z,1.70
2022-10-19T17:28:25.480Z,1.60
2022-10-19T17:31:07.987Z,2.03
2022-10-19T17:33:40.851Z,1.60
2022-10-19T17:36:33.867Z,1.30
2022-10-19T17:39:08.696Z,1.40
2022-10-19T17:44:12.792Z,1.67
2022-10-19T17:46:45.093Z,1.33
2022-10-19T17:49:17.342Z,1.45
2022-10-19T17:51:49.293Z,1.60
2022-10-19T17:54:21.083Z,1.63
2022-10-19T17:56:52.776Z,2.63
2022-10-19T17:59:34.922Z,2.20
2022-10-19T18:02:07.839Z,2.33
2022-10-19T18:04:39.639Z,2.55
2022-10-19T18:07:11.790Z,2.92
2022-10-19T18:09:43.493Z,2.55
2022-10-19T18:12:15.287Z,2.28
2022-10-19T18:14:47.007Z,2.35
2022-10-19T18:17:18.771Z,2.10
2022-10-19T18:19:50.637Z,2.50
2022-10-19T18:22:22.793Z,2.10
2022-10-19T18:24:54.677Z,1.80
2022-10-19T18:27:26.910Z,2.42
2022-10-19T18:29:58.564Z,1.80
2022-10-19T18:32:30.403Z,2.92
2022-10-19T18:35:02.089Z,2.10
2022-10-19T18:37:33.977Z,1.75
2022-10-19T18:40:06.417Z,2.20
2022-10-19T18:42:38.319Z,1.92
2022-10-19T18:45:10.256Z,2.03
2022-10-19T18:47:42.137Z,2.10
2022-10-19T18:52:50.785Z,2.25
2022-10-19T18:55:22.915Z,3.38
2022-10-19T18:57:54.571Z,3.13
2022-10-19T19:00:26.192Z,3.67
2022-10-19T19:02:58.169Z,3.35
2022-10-19T19:05:31.807Z,2.65
2022-10-19T19:08:03.567Z,2.65
2022-10-19T19:10:35.196Z,2.42
2022-10-19T19:13:08.193Z,2.20
2022-10-19T19:15:40.149Z,2.10
2022-10-19T19:18:12.270Z,2.17
2022-10-19T19:20:44.090Z,2.53
2022-10-19T19:23:15.961Z,2.72
2022-10-19T19:25:51.085Z,2.47
2022-10-19T19:28:23.289Z,2.60
2022-10-19T19:30:57.836Z,3.22
2022-10-19T19:33:30.080Z,2.80
2022-10-19T19:36:05.782Z,3.00
2022-10-19T19:38:37.585Z,3.08
2022-10-19T19:41:11.974Z,2.70
2022-10-19T19:43:43.912Z,2.90
2022-10-19T19:46:18.459Z,3.83
2022-10-19T19:48:50.175Z,3.40
2022-10-19T19:51:22.754Z,3.63
2022-10-19T19:53:54.516Z,4.78
2022-10-19T19:56:27.405Z,5.30
2022-10-19T19:59:00.799Z,4.55
2022-10-19T20:01:33.077Z,4.13
2022-10-19T20:04:05.795Z,5.88
2022-10-19T20:06:39.127Z,7.97
2022-10-19T20:09:11.546Z,5.18
2022-10-19T20:11:44.194Z,5.35
2022-10-19T20:14:15.935Z,5.18
2022-10-19T20:16:47.628Z,5.32
2022-10-19T20:19:19.360Z,5.38
2022-10-19T20:21:53.317Z,5.05
2022-10-19T20:24:25.715Z,5.68
2022-10-19T20:26:57.393Z,7.15
2022-10-19T20:29:30.239Z,7.32
2022-10-19T20:32:02.532Z,7.47
2022-10-19T20:34:35.853Z,7.13
2022-10-19T20:37:07.573Z,7.07
2022-10-19T20:39:39.279Z,6.55
2022-10-19T20:42:11.125Z,5.95
2022-10-19T20:44:43.423Z,6.40
2022-10-19T20:47:15.276Z,5.85
2022-10-19T20:49:47.751Z,5.78
2022-10-19T20:52:19.430Z,6.22
2022-10-19T20:54:51.355Z,5.65
2022-10-19T20:57:23.130Z,6.43
2022-10-19T20:59:54.809Z,6.32
2022-10-19T21:02:26.565Z,5.65
2022-10-19T21:04:58.250Z,6.40
2022-10-19T21:07:30.091Z,6.95
2022-10-19T21:10:01.934Z,5.95
2022-10-19T21:12:33.995Z,7.03
2022-10-19T21:15:07.650Z,6.97
2022-10-19T21:17:39.238Z,6.95
2022-10-19T21:20:13.523Z,6.45
2022-10-19T21:22:45.314Z,7.50
2022-10-19T21:25:17.040Z,7.78
2022-10-19T21:27:51.800Z,7.32
2022-10-19T21:32:55.350Z,7.43
2022-10-19T21:35:27.100Z,8.30
2022-10-19T21:37:59.147Z,7.20
2022-10-19T21:40:30.861Z,7.82
2022-10-19T21:43:02.509Z,8.00
2022-10-19T21:45:37.889Z,7.55
2022-10-19T21:48:10.222Z,7.65
2022-10-19T21:50:42.052Z,7.40
2022-10-19T21:53:17.749Z,7.00
2022-10-19T21:55:53.575Z,7.20
2022-10-19T21:58:25.401Z,7.85
2022-10-19T22:01:07.598Z,8.13
2022-10-19T22:03:42.230Z,6.90
2022-10-19T22:06:14.691Z,7.00
2022-10-19T22:13:03.493Z,7.20
2022-10-19T22:15:39.398Z,7.53
2022-10-19T22:18:11.177Z,7.82
2022-10-19T22:20:48.966Z,7.43
2022-10-19T22:28:15.031Z,7.57
2022-10-19T22:30:57.381Z,7.80
2022-10-19T22:33:35.009Z,7.25
2022-10-19T22:36:13.075Z,6.80
2022-10-19T22:38:45.202Z,6.90
2022-10-19T22:42:13.633Z,7.40
2022-10-19T22:45:07.554Z,7.72
2022-10-19T22:47:39.286Z,7.72
2022-10-19T22:50:11.936Z,9.15
2022-10-19T22:52:43.807Z,7.78
